createdAt,value
2018-08-29T00:00:05.017Z,18.14
2018-08-29T00:02:35.346Z,18.08
2018-08-29T00:05:06.212Z,18.07
2018-08-29T00:07:41.530Z,18.03
2018-08-29T00:10:20.070Z,17.93
2018-08-29T00:12:50.392Z,17.94
2018-08-29T00:15:20.632Z,17.95
2018-08-29T00:17:50.747Z,17.93
2018-08-29T00:20:21.142Z,17.90
2018-08-29T00:22:51.619Z,17.91
2018-08-29T00:25:22.277Z,17.93
2018-08-29T00:27:52.634Z,17.95
2018-08-29T00:30:22.859Z,17.94
2018-08-29T00:32:53.236Z,17.88
2018-08-29T00:35:23.785Z,17.91
2018-08-29T00:37:54.458Z,17.90
2018-08-29T00:40:24.863Z,17.87
2018-08-29T00:42:55.247Z,17.83
2018-08-29T00:45:25.792Z,17.81
2018-08-29T00:47:56.180Z,17.74
2018-08-29T00:50:26.567Z,17.56
2018-08-29T00:52:56.838Z,17.44
2018-08-29T00:55:27.362Z,17.37
2018-08-29T00:57:57.444Z,17.32
2018-08-29T01:00:27.909Z,17.32
2018-08-29T01:02:58.390Z,17.34
2018-08-29T01:05:28.895Z,17.36
2018-08-29T01:07:59.340Z,17.45
2018-08-29T01:10:34.052Z,17.45
2018-08-29T01:13:04.743Z,17.35
2018-08-29T01:15:35.256Z,17.30
2018-08-29T01:18:05.416Z,17.37
2018-08-29T01:20:36.129Z,17.29
2018-08-29T01:23:06.411Z,17.28
2018-08-29T01:25:36.427Z,17.16
2018-08-29T01:28:06.863Z,17.08
2018-08-29T01:30:37.523Z,17.02
2018-08-29T01:33:08.072Z,16.85
2018-08-29T01:35:38.711Z,16.80
2018-08-29T01:38:08.573Z,16.82
2018-08-29T01:40:38.576Z,16.83
2018-08-29T01:43:08.886Z,16.87
2018-08-29T01:45:39.646Z,16.95
2018-08-29T01:48:10.123Z,16.99
2018-08-29T01:50:40.454Z,17.05
2018-08-29T01:53:10.701Z,17.00
2018-08-29T01:55:41.608Z,16.90
2018-08-29T01:58:13.071Z,16.85
2018-08-29T02:00:43.615Z,16.86
2018-08-29T02:03:14.170Z,16.90
2018-08-29T02:05:44.557Z,16.85
2018-08-29T02:08:14.957Z,16.72
2018-08-29T02:10:45.460Z,16.70
2018-08-29T02:13:15.908Z,16.74
2018-08-29T02:15:48.924Z,16.84
2018-08-29T02:18:20.894Z,16.89
2018-08-29T02:20:51.786Z,16.90
2018-08-29T02:23:22.117Z,16.89
2018-08-29T02:25:52.601Z,16.85
2018-08-29T02:28:23.155Z,16.70
2018-08-29T02:30:53.670Z,16.52
2018-08-29T02:33:24.328Z,16.50
2018-08-29T02:35:54.645Z,16.50
2018-08-29T02:38:25.044Z,16.51
2018-08-29T02:40:55.238Z,16.44
2018-08-29T02:43:26.645Z,16.48
2018-08-29T02:45:57.178Z,16.53
2018-08-29T02:48:27.627Z,16.52
2018-08-29T02:50:57.929Z,16.51
2018-08-29T02:53:28.283Z,16.49
2018-08-29T02:55:58.885Z,16.48
2018-08-29T02:58:29.764Z,16.49
2018-08-29T03:01:00.027Z,16.48
2018-08-29T03:03:30.651Z,16.50
2018-08-29T03:06:01.106Z,16.51
2018-08-29T03:08:31.481Z,16.53
2018-08-29T03:11:01.901Z,16.43
2018-08-29T03:13:32.441Z,16.40
2018-08-29T03:16:04.740Z,16.30
2018-08-29T03:18:35.376Z,16.21
2018-08-29T03:21:05.400Z,16.23
2018-08-29T03:23:36.183Z,16.27
2018-08-29T03:26:06.482Z,16.31
2018-08-29T03:28:36.850Z,16.21
2018-08-29T03:31:07.242Z,16.20
2018-08-29T03:33:37.612Z,16.27
2018-08-29T03:36:08.122Z,16.20
2018-08-29T03:38:38.540Z,16.18
2018-08-29T03:41:09.972Z,16.16
2018-08-29T03:43:40.309Z,16.21
2018-08-29T03:46:10.797Z,16.25
2018-08-29T03:48:41.122Z,16.24
2018-08-29T03:51:11.521Z,16.26
2018-08-29T03:53:42.256Z,16.27
2018-08-29T03:56:12.916Z,16.20
2018-08-29T03:58:43.465Z,16.09
2018-08-29T04:01:13.771Z,16.10
2018-08-29T04:03:44.009Z,16.12
2018-08-29T04:06:14.366Z,16.18
2018-08-29T04:08:44.709Z,16.21
2018-08-29T04:11:15.220Z,16.24
2018-08-29T04:13:45.499Z,16.22
2018-08-29T04:16:16.150Z,16.25
2018-08-29T04:18:46.086Z,16.27
2018-08-29T04:21:16.139Z,16.23
2018-08-29T04:23:47.163Z,16.23
2018-08-29T04:26:18.025Z,16.17
2018-08-29T04:28:48.305Z,16.14
2018-08-29T04:31:18.639Z,16.12
2018-08-29T04:33:48.976Z,16.14
2018-08-29T04:36:19.635Z,16.15
2018-08-29T04:38:49.746Z,16.16
2018-08-29T04:41:20.091Z,16.16
2018-08-29T04:43:50.616Z,16.20
2018-08-29T04:46:20.832Z,16.05
2018-08-29T04:48:51.139Z,16.02
2018-08-29T04:51:21.301Z,16.05
2018-08-29T04:53:51.460Z,16.06
2018-08-29T04:56:21.761Z,16.14
2018-08-29T04:58:52.553Z,16.25
2018-08-29T05:01:23.088Z,16.22
2018-08-29T05:03:53.597Z,16.21
2018-08-29T05:06:23.852Z,16.26
2018-08-29T05:08:53.851Z,16.16
2018-08-29T05:11:24.074Z,16.15
2018-08-29T05:13:54.348Z,16.16
2018-08-29T05:16:24.735Z,16.26
2018-08-29T05:18:55.010Z,16.32
2018-08-29T05:21:25.326Z,16.50
2018-08-29T05:23:55.766Z,16.64
2018-08-29T05:26:26.184Z,16.79
2018-08-29T05:28:57.231Z,16.90
2018-08-29T05:31:27.577Z,17.05
2018-08-29T05:33:58.370Z,17.26
2018-08-29T05:36:28.591Z,17.29
2018-08-29T05:38:58.915Z,17.50
2018-08-29T05:41:29.253Z,18.07
2018-08-29T05:44:00.017Z,18.50
2018-08-29T05:46:30.999Z,18.65
2018-08-29T05:49:01.844Z,18.60
2018-08-29T05:51:32.117Z,18.49
2018-08-29T05:54:02.578Z,18.37
2018-08-29T05:56:33.308Z,18.06
2018-08-29T05:59:04.431Z,17.94
2018-08-29T06:01:34.906Z,17.82
2018-08-29T06:04:05.131Z,17.76
2018-08-29T06:06:35.622Z,17.74
2018-08-29T06:09:07.135Z,17.74
2018-08-29T06:11:37.499Z,17.71
2018-08-29T06:14:07.769Z,17.70
2018-08-29T06:16:38.143Z,17.70
2018-08-29T06:19:08.369Z,17.74
2018-08-29T06:21:39.071Z,17.73
2018-08-29T06:24:10.588Z,17.85
2018-08-29T06:26:40.817Z,18.00
2018-08-29T06:29:11.239Z,18.15
2018-08-29T06:31:41.223Z,18.30
2018-08-29T06:34:11.164Z,18.43
2018-08-29T06:36:41.823Z,18.56
2018-08-29T06:39:13.487Z,18.69
2018-08-29T06:41:43.402Z,18.75
2018-08-29T06:44:13.642Z,18.92
2018-08-29T06:46:43.505Z,19.01
2018-08-29T06:49:13.319Z,19.08
2018-08-29T06:51:43.381Z,19.21
2018-08-29T06:54:13.489Z,19.38
2018-08-29T06:56:43.468Z,19.54
2018-08-29T06:59:21.861Z,19.65
2018-08-29T07:01:52.068Z,19.83
2018-08-29T07:04:22.560Z,19.92
2018-08-29T07:06:52.515Z,20.00
2018-08-29T07:09:22.396Z,20.12
2018-08-29T07:11:52.538Z,20.25
2018-08-29T07:14:22.755Z,20.25
2018-08-29T07:16:53.206Z,20.33
2018-08-29T07:19:23.364Z,20.39
2018-08-29T07:21:53.319Z,20.45
2018-08-29T07:24:23.249Z,20.51
2018-08-29T07:26:53.153Z,20.59
2018-08-29T07:29:23.204Z,20.70
2018-08-29T07:31:53.464Z,20.84
2018-08-29T07:34:23.409Z,20.96
2018-08-29T07:36:53.316Z,20.99
2018-08-29T07:39:23.292Z,21.14
2018-08-29T07:41:53.230Z,21.27
2018-08-29T07:44:23.042Z,21.34
2018-08-29T07:46:53.084Z,21.39
2018-08-29T07:49:23.295Z,21.42
2018-08-29T07:51:55.128Z,21.52
2018-08-29T07:54:25.071Z,21.58
2018-08-29T07:56:55.118Z,21.67
2018-08-29T07:59:24.973Z,21.74
2018-08-29T08:01:55.039Z,21.85
2018-08-29T08:04:25.216Z,21.95
2018-08-29T08:06:54.975Z,22.09
2018-08-29T08:09:30.042Z,22.17
2018-08-29T08:12:00.026Z,22.22
2018-08-29T08:14:29.847Z,22.23
2018-08-29T08:17:00.024Z,22.34
2018-08-29T08:19:29.989Z,22.41
2018-08-29T08:22:00.078Z,22.48
2018-08-29T08:24:30.201Z,22.56
2018-08-29T08:27:00.480Z,22.72
2018-08-29T08:29:30.695Z,22.76
2018-08-29T08:32:00.688Z,22.84
2018-08-29T08:34:30.565Z,22.92
2018-08-29T08:37:00.367Z,23.01
2018-08-29T08:39:30.352Z,23.07
2018-08-29T08:42:00.164Z,23.10
2018-08-29T08:44:30.322Z,23.17
2018-08-29T08:47:01.121Z,23.23
2018-08-29T08:49:31.552Z,23.32
2018-08-29T08:52:01.017Z,23.41
2018-08-29T08:54:31.300Z,23.57
2018-08-29T08:57:01.362Z,23.70
2018-08-29T08:59:31.899Z,23.84
2018-08-29T09:02:02.673Z,23.87
2018-08-29T09:04:32.796Z,24.00
2018-08-29T09:07:03.033Z,24.04
2018-08-29T09:09:32.762Z,24.00
2018-08-29T09:12:02.820Z,23.96
2018-08-29T09:14:33.614Z,24.02
2018-08-29T09:17:03.941Z,24.15
2018-08-29T09:19:35.160Z,24.30
2018-08-29T09:22:05.631Z,24.37
2018-08-29T09:24:35.951Z,24.49
2018-08-29T09:27:06.127Z,24.56
2018-08-29T09:29:36.846Z,24.62
2018-08-29T09:32:07.552Z,24.86
2018-08-29T09:34:37.889Z,24.86
2018-08-29T09:37:08.189Z,24.79
2018-08-29T09:39:38.029Z,24.71
2018-08-29T09:42:08.130Z,24.59
2018-08-29T09:44:37.986Z,24.56
2018-08-29T09:47:09.150Z,24.66
2018-08-29T09:49:39.392Z,24.73
2018-08-29T09:52:12.666Z,24.83
2018-08-29T09:54:43.184Z,25.08
2018-08-29T09:57:13.830Z,25.06
2018-08-29T09:59:44.208Z,25.03
2018-08-29T10:02:19.339Z,25.23
2018-08-29T10:04:49.753Z,25.24
2018-08-29T10:07:20.094Z,25.26
2018-08-29T10:09:50.320Z,25.27
2018-08-29T10:12:20.873Z,25.60
2018-08-29T10:14:51.473Z,25.80
2018-08-29T10:17:21.740Z,25.94
2018-08-29T10:19:52.308Z,26.03
2018-08-29T10:22:22.977Z,25.92
2018-08-29T10:24:52.916Z,25.82
2018-08-29T10:27:22.982Z,25.78
2018-08-29T10:29:53.297Z,25.96
2018-08-29T10:32:23.484Z,25.89
2018-08-29T10:34:53.344Z,25.89
2018-08-29T10:37:23.327Z,26.03
2018-08-29T10:39:53.365Z,25.81
2018-08-29T10:42:23.914Z,25.83
2018-08-29T10:44:53.855Z,25.96
2018-08-29T10:47:23.848Z,26.34
2018-08-29T10:49:54.129Z,26.45
2018-08-29T10:52:24.212Z,26.41
2018-08-29T10:54:54.193Z,26.27
2018-08-29T10:57:24.966Z,26.34
2018-08-29T10:59:55.059Z,26.43
2018-08-29T11:02:25.681Z,26.54
2018-08-29T11:04:56.234Z,26.75
2018-08-29T11:07:26.412Z,26.79
2018-08-29T11:09:56.855Z,26.78
2018-08-29T11:12:26.947Z,26.81
2018-08-29T11:14:56.950Z,26.76
2018-08-29T11:17:27.294Z,26.69
2018-08-29T11:19:57.571Z,26.73
2018-08-29T11:22:28.540Z,26.79
2018-08-29T11:24:58.460Z,26.80
2018-08-29T11:27:28.915Z,26.89
2018-08-29T11:29:59.265Z,26.89
2018-08-29T11:32:29.616Z,26.94
2018-08-29T11:34:59.986Z,26.90
2018-08-29T11:37:30.102Z,26.92
2018-08-29T11:40:00.413Z,26.85
2018-08-29T11:42:30.564Z,26.76
2018-08-29T11:45:00.870Z,26.61
2018-08-29T11:47:30.994Z,26.55
2018-08-29T11:50:01.288Z,26.45
2018-08-29T11:52:31.595Z,26.43
2018-08-29T11:55:02.174Z,26.44
2018-08-29T11:57:32.287Z,26.51
2018-08-29T12:00:02.807Z,26.63
2018-08-29T12:02:33.107Z,26.74
2018-08-29T12:05:03.456Z,26.87
2018-08-29T12:07:33.861Z,26.86
2018-08-29T12:10:03.936Z,26.89
2018-08-29T12:12:34.471Z,26.90
2018-08-29T12:15:05.529Z,26.91
2018-08-29T12:17:35.820Z,26.85
2018-08-29T12:20:05.856Z,26.85
2018-08-29T12:22:36.117Z,26.91
2018-08-29T12:25:06.775Z,26.98
2018-08-29T12:27:37.518Z,27.00
2018-08-29T12:30:08.887Z,27.13
2018-08-29T12:32:39.256Z,27.24
2018-08-29T12:35:09.478Z,27.15
2018-08-29T12:37:39.731Z,27.27
2018-08-29T12:40:11.068Z,27.43
2018-08-29T12:42:41.482Z,27.53
2018-08-29T12:45:11.910Z,27.67
2018-08-29T12:47:42.265Z,27.71
2018-08-29T12:50:12.663Z,27.81
2018-08-29T12:52:43.443Z,27.68
2018-08-29T12:55:13.579Z,27.45
2018-08-29T12:57:43.496Z,27.35
2018-08-29T13:00:14.141Z,27.22
2018-08-29T13:02:44.589Z,27.18
2018-08-29T13:05:15.184Z,27.14
2018-08-29T13:07:45.227Z,27.01
2018-08-29T13:10:15.184Z,26.93
2018-08-29T13:12:45.449Z,26.86
2018-08-29T13:15:16.106Z,26.79
2018-08-29T13:17:46.771Z,26.73
2018-08-29T13:20:17.002Z,26.57
2018-08-29T13:22:47.112Z,26.43
2018-08-29T13:25:17.119Z,26.30
2018-08-29T13:27:47.784Z,26.12
2018-08-29T13:30:18.243Z,26.05
2018-08-29T13:32:48.572Z,26.02
2018-08-29T13:35:18.971Z,25.92
2018-08-29T13:37:49.504Z,25.92
2018-08-29T13:40:20.093Z,25.89
2018-08-29T13:42:50.710Z,25.83
2018-08-29T13:45:20.961Z,25.84
2018-08-29T13:47:51.141Z,25.81
2018-08-29T13:50:21.291Z,25.85
2018-08-29T13:52:53.226Z,25.90
2018-08-29T13:55:23.348Z,25.87
2018-08-29T13:57:53.938Z,25.90
2018-08-29T14:00:24.444Z,25.90
2018-08-29T14:02:54.941Z,25.88
2018-08-29T14:05:25.481Z,25.89
2018-08-29T14:07:56.076Z,25.92
2018-08-29T14:10:26.305Z,25.86
2018-08-29T14:12:56.622Z,25.81
2018-08-29T14:15:26.721Z,25.74
2018-08-29T14:17:57.196Z,25.65
2018-08-29T14:20:27.523Z,25.54
2018-08-29T14:22:57.803Z,25.50
2018-08-29T14:25:30.137Z,25.41
2018-08-29T14:28:06.756Z,25.34
2018-08-29T14:30:36.781Z,25.33
2018-08-29T14:33:07.284Z,25.20
2018-08-29T14:35:37.387Z,25.19
2018-08-29T14:38:07.952Z,25.06
2018-08-29T14:40:38.717Z,24.91
2018-08-29T14:43:08.714Z,24.80
2018-08-29T14:45:39.113Z,24.67
2018-08-29T14:48:09.400Z,24.52
2018-08-29T14:50:39.541Z,24.41
2018-08-29T14:53:10.179Z,24.22
2018-08-29T14:55:40.510Z,24.02
2018-08-29T14:58:10.773Z,23.86
2018-08-29T15:01:07.763Z,23.75
2018-08-29T15:04:28.304Z,23.62
2018-08-29T15:06:58.971Z,23.53
2018-08-29T15:09:30.054Z,23.50
2018-08-29T15:12:00.242Z,23.46
2018-08-29T15:14:31.173Z,23.35
2018-08-29T15:17:02.573Z,23.33
2018-08-29T15:19:33.251Z,23.22
2018-08-29T15:22:03.849Z,23.21
2018-08-29T15:24:33.982Z,23.17
2018-08-29T15:27:05.146Z,23.16
2018-08-29T15:29:35.421Z,23.09
2018-08-29T15:32:05.937Z,23.09
2018-08-29T15:34:36.210Z,23.07
2018-08-29T15:37:06.410Z,23.02
2018-08-29T15:39:36.576Z,22.87
2018-08-29T15:42:07.140Z,22.86
2018-08-29T15:44:37.131Z,22.84
2018-08-29T15:47:07.318Z,22.82
2018-08-29T15:49:37.329Z,22.91
2018-08-29T15:52:07.524Z,22.78
2018-08-29T15:54:37.557Z,22.82
2018-08-29T15:57:07.841Z,22.69
2018-08-29T15:59:38.133Z,22.71
2018-08-29T16:02:08.788Z,22.68
2018-08-29T16:04:39.102Z,22.71
2018-08-29T16:07:09.475Z,22.78
2018-08-29T16:09:39.755Z,22.75
2018-08-29T16:12:09.888Z,22.85
2018-08-29T16:14:39.728Z,22.90
2018-08-29T16:17:09.690Z,22.94
2018-08-29T16:19:39.993Z,22.95
2018-08-29T16:22:10.364Z,23.02
2018-08-29T16:24:40.599Z,23.01
2018-08-29T16:27:10.856Z,22.92
2018-08-29T16:29:41.336Z,22.87
2018-08-29T16:32:11.631Z,22.81
2018-08-29T16:34:41.920Z,22.73
2018-08-29T16:37:12.018Z,22.68
2018-08-29T16:39:42.258Z,22.61
2018-08-29T16:42:12.625Z,22.54
2018-08-29T16:44:43.242Z,22.50
2018-08-29T16:47:13.524Z,22.41
2018-08-29T16:49:43.582Z,22.25
2018-08-29T16:52:13.641Z,22.03
2018-08-29T16:54:43.928Z,21.93
2018-08-29T16:57:13.918Z,21.81
2018-08-29T16:59:44.198Z,21.74
2018-08-29T17:02:14.152Z,21.71
2018-08-29T17:04:44.090Z,21.74
2018-08-29T17:07:14.018Z,21.55
2018-08-29T17:09:44.243Z,21.56
2018-08-29T17:12:14.326Z,21.54
2018-08-29T17:14:44.401Z,21.41
2018-08-29T17:17:14.836Z,21.38
2018-08-29T17:19:45.205Z,21.44
2018-08-29T17:22:15.520Z,21.28
2018-08-29T17:24:45.622Z,21.24
2018-08-29T17:27:16.303Z,21.28
2018-08-29T17:29:46.869Z,21.26
2018-08-29T17:32:17.600Z,21.23
2018-08-29T17:34:47.920Z,21.22
2018-08-29T17:37:18.273Z,21.35
2018-08-29T17:39:48.903Z,21.38
2018-08-29T17:42:19.318Z,21.27
2018-08-29T17:44:50.272Z,21.14
2018-08-29T17:47:21.242Z,21.12
2018-08-29T17:49:51.383Z,21.16
2018-08-29T17:52:22.287Z,21.27
2018-08-29T17:54:52.961Z,21.46
2018-08-29T17:57:23.447Z,21.43
2018-08-29T17:59:55.159Z,21.36
2018-08-29T18:02:26.170Z,21.30
2018-08-29T18:04:56.508Z,21.27
2018-08-29T18:07:27.590Z,21.25
2018-08-29T18:09:59.719Z,21.31
2018-08-29T18:12:31.120Z,21.30
2018-08-29T18:15:01.889Z,21.25
2018-08-29T18:17:32.440Z,21.14
2018-08-29T18:20:02.648Z,21.13
2018-08-29T18:22:33.037Z,20.96
2018-08-29T18:25:03.568Z,20.82
2018-08-29T18:27:33.859Z,20.88
2018-08-29T18:30:04.326Z,20.90
2018-08-29T18:32:34.703Z,20.86
2018-08-29T18:35:05.118Z,20.90
2018-08-29T18:37:35.945Z,20.80
2018-08-29T18:40:06.344Z,20.88
2018-08-29T18:42:37.014Z,20.81
2018-08-29T18:45:08.121Z,20.79
2018-08-29T18:47:38.765Z,20.74
2018-08-29T18:50:09.417Z,20.73
2018-08-29T18:52:39.620Z,20.92
2018-08-29T18:55:10.580Z,21.00
2018-08-29T18:57:40.848Z,21.14
2018-08-29T19:00:11.253Z,21.00
2018-08-29T19:02:41.922Z,20.99
2018-08-29T19:05:12.529Z,20.89
2018-08-29T19:07:43.146Z,20.96
2018-08-29T19:10:13.569Z,20.97
2018-08-29T19:12:43.894Z,20.87
2018-08-29T19:15:14.253Z,20.73
2018-08-29T19:17:44.919Z,20.58
2018-08-29T19:20:15.599Z,20.52
2018-08-29T19:22:46.124Z,20.52
2018-08-29T19:25:16.861Z,20.56
2018-08-29T19:27:46.962Z,20.46
2018-08-29T19:30:17.356Z,20.47
2018-08-29T19:32:47.791Z,20.37
2018-08-29T19:35:18.150Z,20.36
2018-08-29T19:37:48.757Z,20.46
2018-08-29T19:40:19.529Z,20.52
2018-08-29T19:42:49.985Z,20.53
2018-08-29T19:45:20.382Z,20.56
2018-08-29T19:47:50.869Z,20.49
2018-08-29T19:50:21.415Z,20.60
2018-08-29T19:52:51.789Z,20.49
2018-08-29T19:55:22.188Z,20.63
2018-08-29T19:57:52.934Z,20.47
2018-08-29T20:00:24.140Z,20.44
2018-08-29T20:02:54.649Z,20.55
2018-08-29T20:05:25.123Z,20.49
2018-08-29T20:07:55.466Z,20.64
2018-08-29T20:10:25.676Z,20.71
2018-08-29T20:12:56.373Z,20.58
2018-08-29T20:15:26.369Z,20.45
2018-08-29T20:17:56.410Z,20.34
2018-08-29T20:20:26.367Z,20.30
2018-08-29T20:22:57.096Z,20.22
2018-08-29T20:25:27.181Z,20.22
2018-08-29T20:27:57.378Z,20.14
2018-08-29T20:30:27.752Z,20.09
2018-08-29T20:32:58.446Z,20.13
2018-08-29T20:35:28.436Z,20.20
2018-08-29T20:37:58.425Z,20.24
2018-08-29T20:40:28.389Z,20.28
2018-08-29T20:42:58.731Z,20.30
2018-08-29T20:45:28.625Z,20.17
2018-08-29T20:48:08.578Z,20.25
2018-08-29T20:50:29.063Z,20.15
2018-08-29T20:52:59.300Z,20.18
2018-08-29T20:55:29.714Z,20.11
2018-08-29T20:57:59.762Z,20.20
2018-08-29T21:00:29.888Z,20.09
2018-08-29T21:02:59.903Z,20.21
2018-08-29T21:05:29.875Z,20.14
2018-08-29T21:08:00.638Z,20.08
2018-08-29T21:10:30.962Z,20.10
2018-08-29T21:13:00.834Z,19.99
2018-08-29T21:15:30.853Z,19.97
2018-08-29T21:18:01.453Z,19.87
2018-08-29T21:20:31.798Z,19.71
2018-08-29T21:23:02.233Z,19.60
2018-08-29T21:25:32.576Z,19.20
2018-08-29T21:29:34.748Z,18.77
2018-08-29T21:34:34.828Z,18.46
2018-08-29T21:37:25.048Z,18.33
2018-08-29T21:39:55.126Z,18.12
2018-08-29T21:42:25.501Z,18.05
2018-08-29T21:45:12.050Z,17.98
2018-08-29T21:50:07.002Z,17.88
2018-08-29T21:52:53.606Z,17.67
2018-08-29T21:57:36.759Z,17.47
2018-08-29T22:02:26.339Z,17.30
2018-08-29T22:05:07.532Z,17.37
2018-08-29T22:07:38.283Z,17.48
2018-08-29T22:10:08.839Z,17.43
2018-08-29T22:12:38.752Z,17.38
2018-08-29T22:15:26.613Z,17.37
2018-08-29T22:17:58.564Z,17.34
2018-08-29T22:20:29.422Z,17.33
2018-08-29T22:22:59.577Z,17.40
2018-08-29T22:25:29.592Z,17.35
2018-08-29T22:27:59.938Z,17.30
2018-08-29T22:30:30.069Z,17.23
2018-08-29T22:32:59.933Z,17.16
2018-08-29T22:35:29.935Z,17.14
2018-08-29T22:37:59.727Z,17.12
2018-08-29T22:40:29.840Z,17.13
2018-08-29T22:42:59.899Z,17.14
2018-08-29T22:45:29.851Z,17.10
2018-08-29T22:47:59.873Z,17.07
2018-08-29T22:50:30.679Z,17.08
2018-08-29T22:53:00.725Z,17.13
2018-08-29T22:55:31.270Z,17.12
2018-08-29T22:58:01.080Z,17.11
2018-08-29T23:00:31.381Z,17.14
2018-08-29T23:03:01.311Z,17.13
2018-08-29T23:05:31.722Z,17.04
2018-08-29T23:08:02.867Z,16.93
2018-08-29T23:10:33.834Z,17.02
2018-08-29T23:13:03.869Z,17.04
2018-08-29T23:15:33.740Z,16.98
2018-08-29T23:18:03.649Z,16.90
2018-08-29T23:20:33.649Z,16.84
2018-08-29T23:23:03.615Z,16.93
2018-08-29T23:25:33.503Z,16.97
2018-08-29T23:28:03.488Z,16.90
2018-08-29T23:30:33.586Z,16.86
2018-08-29T23:33:03.599Z,16.95
2018-08-29T23:35:33.469Z,16.96
2018-08-29T23:38:03.609Z,17.11
2018-08-29T23:40:33.687Z,16.99
2018-08-29T23:43:03.729Z,16.99
2018-08-29T23:45:33.777Z,16.94
2018-08-29T23:48:03.850Z,16.82
2018-08-29T23:50:33.762Z,16.67
2018-08-29T23:53:03.780Z,16.61
2018-08-29T23:55:33.735Z,16.53
2018-08-29T23:58:04.228Z,16.63
